Time;durP1;ratioP1;P1;durP2;ratioP2;P2;SDS_P1;SDS_P2;PMS_P1;PMS_P2;Temp;Humidity;BMP_temperature;BMP_pressure;BME280_temperature;BME280_humidity;BME280_pressure;Samples;Min_cycle;Max_cycle;Signal;HPM_P1;HPM_P2
2023/10/19 00:00:50;;;;;;;28.70;15.90;;;;;;;8.99;52.61;99824.87;108035;1252;70776;-65
2023/10/19 00:03:18;;;;;;;24.00;14.30;;;;;;;8.83;52.87;99827.17;108039;1253;72685;-66
2023/10/19 00:05:46;;;;;;;25.00;15.00;;;;;;;8.92;52.60;99831.25;108133;1253;59887;-65
2023/10/19 00:10:48;;;;;;;21.60;13.50;;;;;;;8.91;52.56;99827.96;108108;1254;72189;-66
2023/10/19 00:13:16;;;;;;;27.60;14.30;;;;;;;8.97;52.43;99831.23;108058;1253;70257;-66
2023/10/19 00:15:53;;;;;;;30.80;15.30;;;;;;;8.92;52.55;99828.80;108194;1254;72695;-65
2023/10/19 00:18:22;;;;;;;26.10;12.70;;;;;;;9.00;52.19;99828.16;108141;1253;60940;-65
2023/10/19 00:21:49;;;;;;;23.30;13.50;;;;;;;9.09;51.98;99822.08;108001;1253;60063;-66
2023/10/19 00:23:42;;;;;;;23.30;13.90;;;;;;;9.08;51.78;99826.48;108032;1253;72376;-66
2023/10/19 00:26:15;;;;;;;21.90;12.50;;;;;;;8.87;52.39;99833.52;108126;1253;69725;-66
2023/10/19 00:28:49;;;;;;;27.80;13.80;;;;;;;8.77;52.43;99834.55;107936;1259;72800;-65
2023/10/19 00:31:19;;;;;;;;;;;;;;;8.63;52.85;99836.45;108165;1254;59628;-66
2023/10/19 00:33:51;;;;;;;24.90;14.10;;;;;;;8.58;52.97;99835.02;108093;1253;59736;-66
2023/10/19 00:36:22;;;;;;;26.50;15.90;;;;;;;8.75;53.00;99838.86;108161;1254;73092;-66
2023/10/19 00:38:56;;;;;;;28.50;13.40;;;;;;;8.76;52.93;99838.28;108170;1252;69860;-66
2023/10/19 00:41:31;;;;;;;30.70;15.00;;;;;;;8.77;53.11;99839.27;108175;1254;71800;-66
2023/10/19 00:44:11;;;;;;;32.50;16.40;;;;;;;8.52;53.72;99839.77;108119;1253;60851;-66
2023/10/19 00:46:52;;;;;;;27.60;15.30;;;;;;;8.38;54.32;99840.75;108127;1253;59444;-66
2023/10/19 00:49:23;;;;;;;28.90;17.00;;;;;;;8.43;54.28;99838.85;108106;1253;73068;-65
2023/10/19 00:52:11;;;;;;;28.40;15.70;;;;;;;8.39;54.52;99836.54;108169;1254;70273;-65
2023/10/19 00:54:42;;;;;;;26.00;15.10;;;;;;;8.65;54.27;99832.69;108170;1252;72766;-66
2023/10/19 00:57:13;;;;;;;31.30;16.50;;;;;;;8.71;54.13;99833.90;108115;1253;60847;-66
2023/10/19 01:02:19;;;;;;;31.40;16.80;;;;;;;9.00;54.00;99839.38;108171;1253;74030;-65
2023/10/19 01:05:08;;;;;;;28.10;17.20;;;;;;;9.15;53.74;99839.20;108237;1254;68680;-66
2023/10/19 01:07:38;;;;;;;35.20;19.00;;;;;;;9.11;53.82;99828.64;108152;1253;70848;-65
2023/10/19 01:10:20;;;;;;;25.80;14.20;;;;;;;9.05;54.19;99830.44;108139;1254;60590;-65
2023/10/19 01:12:50;;;;;;;;;;;;;;;9.13;54.13;99830.67;108197;1252;60298;-65
2023/10/19 01:15:29;;;;;;;27.60;15.90;;;;;;;9.24;54.05;99833.61;108081;1252;72032;-66
2023/10/19 01:17:57;;;;;;;29.90;15.90;;;;;;;9.21;54.50;99833.56;108158;1253;70167;-65
2023/10/19 01:34:03;;;;;;;30.00;16.30;;;;;;;9.30;55.30;99826.72;108140;1254;71241;-64
2023/10/19 01:36:37;;;;;;;38.10;22.60;;;;;;;9.45;55.25;99826.35;108092;1254;60320;-66
2023/10/19 01:39:09;;;;;;;31.30;16.90;;;;;;;9.44;55.34;99826.41;108189;1254;60358;-65
2023/10/19 01:41:39;;;;;;;31.90;20.00;;;;;;;9.44;55.38;99829.88;108172;1253;73409;-66
2023/10/19 01:44:07;;;;;;;34.90;20.20;;;;;;;9.51;55.28;99827.73;108026;1259;69058;-65
2023/10/19 01:46:35;;;;;;;27.60;16.30;;;;;;;9.55;55.27;99824.42;107924;1253;72689;-65
2023/10/19 01:49:04;;;;;;;36.60;21.10;;;;;;;9.48;55.55;99829.74;107905;1254;60447;-66
2023/10/19 01:51:38;;;;;;;35.50;19.30;;;;;;;9.52;55.53;99831.55;108013;1254;60427;-65
2023/10/19 01:54:07;;;;;;;33.90;18.00;;;;;;;9.72;55.15;99826.58;108081;1252;72614;-65
2023/10/19 01:56:35;;;;;;;37.20;20.60;;;;;;;9.77;54.97;99833.21;108019;1254;70117;-66
2023/10/19 01:59:04;;;;;;;36.70;21.40;;;;;;;9.68;55.17;99833.91;107923;1253;72702;-65
2023/10/19 02:01:32;;;;;;;34.00;19.30;;;;;;;9.90;54.75;99834.31;108064;1252;60433;-65
2023/10/19 02:04:05;;;;;;;35.80;19.60;;;;;;;10.08;54.22;99835.34;107978;1253;59259;-66
2023/10/19 02:09:09;;;;;;;34.70;20.00;;;;;;;10.22;53.80;99830.75;108105;1254;70308;-65
2023/10/19 02:11:45;;;;;;;43.70;21.70;;;;;;;10.26;53.73;99836.89;108052;1256;72641;-65
2023/10/19 02:14:14;;;;;;;42.50;21.00;;;;;;;10.21;53.96;99830.28;108037;1254;60880;-65
2023/10/19 02:16:50;;;;;;;41.40;22.40;;;;;;;10.27;53.90;99831.98;108151;1254;60510;-66
2023/10/19 02:19:20;;;;;;;44.80;24.20;;;;;;;10.30;53.55;99833.24;108080;1252;72963;-65
2023/10/19 02:21:48;;;;;;;40.60;20.10;;;;;;;10.30;53.68;99830.98;108139;1254;70923;-66
2023/10/19 02:24:15;;;;;;;46.80;23.10;;;;;;;10.30;53.63;99830.80;108075;1254;71396;-65
2023/10/19 02:26:44;;;;;;;44.60;25.20;;;;;;;10.38;53.58;99828.38;108009;1252;60431;-67
2023/10/19 02:29:12;;;;;;;47.10;26.60;;;;;;;10.37;53.83;99825.10;108070;1254;59973;-66
2023/10/19 02:31:40;;;;;;;52.40;28.90;;;;;;;10.42;53.70;99827.89;108042;1253;74341;-66
2023/10/19 02:34:10;;;;;;;46.20;22.70;;;;;;;10.58;53.32;99825.63;107954;1253;70006;-66
2023/10/19 02:36:38;;;;;;;48.10;25.20;;;;;;;10.61;53.21;99826.21;108046;1254;72461;-66
2023/10/19 02:39:10;;;;;;;43.60;24.60;;;;;;;10.50;53.28;99826.48;107950;1254;60880;-66
2023/10/19 02:41:45;;;;;;;50.10;24.20;;;;;;;10.42;53.35;99825.06;108007;1257;59139;-66
2023/10/19 02:46:58;;;;;;;40.80;22.90;;;;;;;10.30;53.51;99825.19;108131;1252;70312;-65
2023/10/19 02:49:29;;;;;;;;;;;;;;;10.36;53.61;99823.20;108226;1254;71757;-65
2023/10/19 02:52:04;;;;;;;42.10;21.90;;;;;;;10.34;53.66;99823.98;108109;1253;60771;-65
2023/10/19 02:54:34;;;;;;;41.90;23.80;;;;;;;10.37;53.54;99823.67;108051;1254;60520;-65
2023/10/19 02:57:06;;;;;;;51.10;27.50;;;;;;;10.57;53.23;99819.34;108105;1252;72610;-66
2023/10/19 02:59:35;;;;;;;45.40;25.20;;;;;;;10.72;52.83;99816.95;108028;1259;70593;-66
2023/10/19 03:02:25;;;;;;;40.50;23.80;;;;;;;10.77;52.78;99823.07;108050;1252;72706;-65
2023/10/19 03:04:50;;;;;;;41.60;24.50;;;;;;;10.88;52.43;99815.05;108059;1253;60949;-66
2023/10/19 03:07:18;;;;;;;43.30;23.80;;;;;;;10.76;52.50;99818.92;108056;1254;60264;-65
2023/10/19 03:09:49;;;;;;;42.10;23.90;;;;;;;10.74;52.66;99822.48;108019;1254;72737;-65
2023/10/19 03:12:18;;;;;;;41.70;24.40;;;;;;;10.73;52.84;99815.85;108103;1253;68744;-65
2023/10/19 03:14:47;;;;;;;40.40;22.60;;;;;;;10.83;52.55;99813.31;108075;1257;71216;-66
2023/10/19 03:17:15;;;;;;;43.80;24.40;;;;;;;10.84;52.61;99814.17;108216;1253;60962;-65
2023/10/19 03:19:44;;;;;;;42.10;23.10;;;;;;;10.74;52.88;99813.00;108147;1254;60316;-67
2023/10/19 03:22:11;;;;;;;44.30;23.60;;;;;;;10.77;52.82;99815.90;108061;1259;72901;-65
2023/10/19 03:24:45;;;;;;;39.90;22.70;;;;;;;10.88;52.57;99816.98;108101;1254;71151;-64
2023/10/19 03:27:18;;;;;;;38.90;22.50;;;;;;;10.91;52.29;99805.64;108107;1254;71403;-66
2023/10/19 03:29:46;;;;;;;37.10;21.60;;;;;;;10.84;52.60;99806.80;108170;1253;60306;-65
2023/10/19 03:32:15;;;;;;;41.90;24.00;;;;;;;10.77;52.60;99802.36;108202;1254;60312;-66
2023/10/19 03:34:47;;;;;;;40.10;24.00;;;;;;;10.84;52.27;99805.91;108016;1254;71840;-65
2023/10/19 03:37:17;;;;;;;;;;;;;;;10.78;52.48;99805.13;108106;1254;69530;-66
2023/10/19 03:39:46;;;;;;;46.70;25.10;;;;;;;10.77;52.25;99807.62;107943;1256;72322;-67
2023/10/19 03:42:14;;;;;;;41.60;24.20;;;;;;;10.85;51.98;99808.67;108135;1254;60411;-66
2023/10/19 03:44:50;;;;;;;44.70;25.10;;;;;;;10.90;51.80;99817.23;108100;1258;60266;-66
2023/10/19 03:47:20;;;;;;;41.20;23.20;;;;;;;10.93;51.49;99814.81;108211;1252;73874;-64
2023/10/19 03:49:48;;;;;;;44.80;23.50;;;;;;;10.82;51.64;99813.21;108104;1253;70738;-66
2023/10/19 03:54:43;;;;;;;38.60;23.00;;;;;;;10.73;51.71;99814.46;108045;1257;60950;-66
2023/10/19 03:57:12;;;;;;;45.40;25.70;;;;;;;10.66;51.84;99812.63;108104;1254;59567;-65
2023/10/19 03:59:40;;;;;;;40.90;24.60;;;;;;;10.62;51.93;99813.68;108028;1254;73774;-66
2023/10/19 04:02:16;;;;;;;38.70;23.90;;;;;;;10.60;51.94;99814.65;108111;1253;70514;-66
2023/10/19 04:04:43;;;;;;;47.70;26.40;;;;;;;10.49;52.34;99811.43;108123;1254;72542;-65
2023/10/19 04:07:18;;;;;;;38.40;23.40;;;;;;;10.38;52.46;99810.33;108063;1253;60900;-66
2023/10/19 04:12:38;;;;;;;46.20;26.70;;;;;;;10.16;53.00;99812.56;107802;1254;72582;-65
2023/10/19 04:15:26;;;;;;;43.40;22.10;;;;;;;10.09;53.11;99810.42;108133;1253;70360;-65
2023/10/19 04:17:55;;;;;;;44.20;24.50;;;;;;;9.97;53.68;99810.70;108148;1253;71489;-65
2023/10/19 04:20:29;;;;;;;46.90;25.30;;;;;;;9.99;53.63;99812.55;108167;1252;60780;-66
2023/10/19 04:22:58;;;;;;;44.00;23.90;;;;;;;9.98;53.72;99813.13;108018;1254;60502;-65
2023/10/19 04:25:27;;;;;;;49.40;25.60;;;;;;;10.00;53.73;99813.23;108140;1254;73758;-65
2023/10/19 04:27:56;;;;;;;45.40;26.40;;;;;;;10.09;53.49;99815.67;108127;1258;70150;-65
2023/10/19 04:30:25;;;;;;;51.40;26.90;;;;;;;10.07;53.41;99810.98;108179;1256;72534;-65
2023/10/19 04:32:57;;;;;;;91.20;29.50;;;;;;;10.08;53.49;99816.59;108075;1257;60517;-66
2023/10/19 04:35:29;;;;;;;46.20;25.10;;;;;;;10.02;53.56;99823.66;108164;1253;60321;-66
2023/10/19 04:37:57;;;;;;;46.20;25.60;;;;;;;10.01;53.54;99822.84;108176;1252;72992;-66
2023/10/19 04:40:25;;;;;;;53.40;29.70;;;;;;;9.95;53.66;99825.00;108209;1253;70110;-66
2023/10/19 04:42:54;;;;;;;47.80;25.30;;;;;;;9.91;53.75;99828.32;108063;1254;72705;-65
2023/10/19 04:45:22;;;;;;;50.70;28.40;;;;;;;9.76;54.12;99825.88;108102;1253;60953;-66
2023/10/19 04:47:52;;;;;;;48.90;28.20;;;;;;;9.74;54.40;99823.69;108040;1253;60200;-65
2023/10/19 04:50:20;;;;;;;49.00;26.60;;;;;;;9.63;54.66;99820.95;108111;1254;73962;-67
2023/10/19 04:52:48;;;;;;;47.40;27.10;;;;;;;9.65;54.75;99823.48;108036;1252;69883;-65
2023/10/19 04:55:15;;;;;;;50.10;26.20;;;;;;;9.68;54.35;99830.59;108127;1258;72509;-65
2023/10/19 04:57:43;;;;;;;52.70;28.90;;;;;;;9.68;54.54;99833.93;108012;1253;60313;-64
2023/10/19 05:00:13;;;;;;;58.20;28.70;;;;;;;9.76;54.29;99839.55;108059;1252;60463;-63
2023/10/19 05:02:41;;;;;;;;;;;;;;;9.70;54.45;99841.02;108168;1253;73820;-65
2023/10/19 05:05:09;;;;;;;57.90;29.50;;;;;;;9.72;54.37;99843.57;108114;1254;70094;-66
2023/10/19 05:07:37;;;;;;;46.20;27.20;;;;;;;9.60;54.80;99844.57;108006;1254;72719;-66
2023/10/19 05:10:05;;;;;;;60.20;30.50;;;;;;;9.46;55.26;99844.21;107984;1257;60293;-67
2023/10/19 05:12:33;;;;;;;50.00;29.20;;;;;;;9.44;55.27;99843.94;108074;1252;60500;-66
2023/10/19 05:15:00;;;;;;;52.90;28.90;;;;;;;9.48;55.20;99842.90;108070;1254;72687;-66
2023/10/19 05:17:27;;;;;;;48.90;28.10;;;;;;;9.54;55.23;99841.96;108097;1253;70295;-66
2023/10/19 05:19:55;;;;;;;56.60;31.00;;;;;;;9.62;55.12;99840.43;108090;1259;72741;-66
2023/10/19 05:22:24;;;;;;;52.10;30.00;;;;;;;9.57;55.27;99844.50;108065;1252;60302;-66
2023/10/19 05:24:52;;;;;;;51.60;30.10;;;;;;;9.53;55.35;99847.46;108011;1254;59695;-66
2023/10/19 05:27:20;;;;;;;53.30;28.80;;;;;;;9.36;55.95;99847.02;108025;1254;73826;-66
2023/10/19 05:29:47;;;;;;;54.10;29.80;;;;;;;9.27;56.02;99845.77;108069;1258;71104;-66
2023/10/19 05:32:15;;;;;;;55.90;31.40;;;;;;;9.62;55.53;99849.74;108019;1253;72650;-66
2023/10/19 05:34:42;;;;;;;55.20;29.30;;;;;;;9.65;55.26;99856.27;108023;1254;60909;-66
2023/10/19 05:37:10;;;;;;;63.30;32.90;;;;;;;9.87;54.86;99856.85;108055;1259;60288;-66
2023/10/19 05:39:38;;;;;;;56.10;30.30;;;;;;;9.97;54.68;99857.17;108118;1252;73854;-66
2023/10/19 05:42:05;;;;;;;57.00;30.40;;;;;;;10.04;54.40;99856.38;108084;1257;70912;-66
2023/10/19 05:44:33;;;;;;;57.50;31.30;;;;;;;10.08;54.33;99860.42;108185;1253;72723;-66
2023/10/19 05:47:02;;;;;;;52.10;28.50;;;;;;;10.16;53.97;99861.14;108217;1253;60924;-66
2023/10/19 05:49:29;;;;;;;58.70;30.30;;;;;;;10.28;53.75;99861.56;108131;1254;59915;-66
2023/10/19 05:51:57;;;;;;;53.40;30.40;;;;;;;10.15;54.06;99863.29;108147;1254;72972;-66
2023/10/19 05:54:25;;;;;;;62.00;29.30;;;;;;;10.13;53.92;99860.23;108185;1253;68582;-66
2023/10/19 05:56:52;;;;;;;68.20;33.10;;;;;;;10.31;53.57;99862.71;108125;1253;70651;-66
2023/10/19 05:59:20;;;;;;;53.60;28.70;;;;;;;10.25;53.58;99866.06;108138;1252;61080;-65
2023/10/19 06:01:48;;;;;;;55.80;31.80;;;;;;;10.26;53.51;99869.02;108158;1254;60277;-67
2023/10/19 06:04:16;;;;;;;60.40;32.20;;;;;;;10.24;53.56;99871.55;108229;1253;75864;-66
2023/10/19 06:06:48;;;;;;;55.00;30.00;;;;;;;10.29;53.34;99871.21;108211;1254;70293;-66
2023/10/19 06:09:17;;;;;;;64.10;33.70;;;;;;;10.35;53.53;99873.08;108204;1253;72695;-66
2023/10/19 06:11:45;;;;;;;60.50;31.90;;;;;;;10.46;53.46;99874.02;108090;1253;60292;-66
2023/10/19 06:14:13;;;;;;;58.20;30.40;;;;;;;10.56;53.38;99874.34;108248;1252;60078;-65
2023/10/19 06:16:40;;;;;;;67.10;33.00;;;;;;;10.65;53.15;99870.09;108047;1258;72977;-65
2023/10/19 06:19:08;;;;;;;52.50;30.40;;;;;;;10.77;52.73;99872.23;108074;1254;70152;-65
2023/10/19 06:21:36;;;;;;;53.80;30.70;;;;;;;10.86;52.75;99873.98;108230;1253;71796;-66
2023/10/19 06:24:05;;;;;;;64.20;32.20;;;;;;;10.85;52.97;99871.20;108124;1253;60421;-65
2023/10/19 06:26:32;;;;;;;57.80;30.40;;;;;;;11.00;52.66;99871.78;108176;1254;59470;-66
2023/10/19 06:28:59;;;;;;;61.90;34.50;;;;;;;10.96;52.53;99871.77;108145;1254;73986;-66
2023/10/19 06:31:28;;;;;;;56.90;32.60;;;;;;;10.95;52.26;99870.96;108208;1253;70259;-67
2023/10/19 06:33:57;;;;;;;52.50;28.80;;;;;;;10.96;52.12;99869.87;108195;1254;71519;-67
2023/10/19 06:36:25;;;;;;;56.30;30.50;;;;;;;11.04;52.22;99865.30;108148;1253;61138;-67
2023/10/19 06:38:54;;;;;;;62.20;32.20;;;;;;;11.02;52.04;99866.26;108192;1254;60417;-66
2023/10/19 06:41:22;;;;;;;54.80;32.00;;;;;;;11.11;52.15;99862.35;108023;1254;72584;-66
2023/10/19 06:43:50;;;;;;;59.30;32.80;;;;;;;11.23;51.89;99859.40;107995;1254;70123;-66
2023/10/19 06:46:17;;;;;;;54.40;30.40;;;;;;;11.13;51.91;99862.60;108058;1254;71252;-67
2023/10/19 06:48:45;;;;;;;66.90;31.70;;;;;;;11.23;51.88;99859.92;108037;1254;61129;-66
2023/10/19 06:51:12;;;;;;;59.70;30.80;;;;;;;11.26;51.72;99857.30;108008;1256;60543;-66
2023/10/19 06:53:41;;;;;;;56.70;30.30;;;;;;;11.34;51.40;99852.38;108036;1254;73870;-66
2023/10/19 06:56:08;;;;;;;58.80;33.20;;;;;;;11.47;51.33;99859.71;108048;1254;70700;-66
2023/10/19 06:58:36;;;;;;;50.50;28.70;;;;;;;11.57;50.95;99857.31;107980;1254;72696;-66
2023/10/19 07:01:08;;;;;;;58.50;33.80;;;;;;;11.66;50.96;99852.00;107972;1254;60472;-66
2023/10/19 07:03:36;;;;;;;67.40;33.30;;;;;;;11.69;50.79;99851.84;108088;1254;59401;-66
2023/10/19 07:06:04;;;;;;;64.10;33.60;;;;;;;11.84;50.61;99849.95;108046;1252;73852;-66
2023/10/19 07:08:38;;;;;;;70.60;35.60;;;;;;;11.71;50.63;99856.52;108050;1254;69019;-66
2023/10/19 07:11:05;;;;;;;60.80;32.70;;;;;;;11.69;50.58;99857.48;107994;1254;72443;-66
2023/10/19 07:13:35;;;;;;;60.60;34.30;;;;;;;11.65;50.67;99855.19;108030;1257;60340;-66
2023/10/19 07:16:03;;;;;;;61.20;33.20;;;;;;;11.69;50.75;99851.17;108055;1253;60332;-66
2023/10/19 07:18:31;;;;;;;60.80;31.90;;;;;;;11.84;50.24;99846.23;108087;1253;74320;-66
2023/10/19 07:21:09;;;;;;;66.70;34.40;;;;;;;11.98;50.06;99847.70;108110;1254;70063;-66
2023/10/19 07:23:40;;;;;;;57.70;33.40;;;;;;;12.18;49.51;99849.06;108061;1254;73288;-66
2023/10/19 07:26:08;;;;;;;64.30;32.20;;;;;;;12.38;49.10;99851.29;108027;1254;60807;-66
2023/10/19 07:28:35;;;;;;;66.30;33.20;;;;;;;12.31;49.57;99848.79;108054;1254;60187;-66
2023/10/19 07:31:12;;;;;;;66.00;33.30;;;;;;;12.36;49.49;99854.52;108038;1252;73819;-66
2023/10/19 07:33:45;;;;;;;59.50;31.80;;;;;;;12.61;49.04;99849.60;108146;1258;69991;-66
2023/10/19 07:36:14;;;;;;;58.90;33.70;;;;;;;12.85;48.42;99848.73;108171;1253;72679;-66
2023/10/19 07:38:47;;;;;;;52.80;30.40;;;;;;;12.97;47.92;99848.14;108051;1254;59752;-66
2023/10/19 07:41:15;;;;;;;66.60;33.00;;;;;;;13.11;48.04;99847.25;108079;1258;59109;-66
2023/10/19 07:43:44;;;;;;;61.20;31.40;;;;;;;12.95;48.25;99844.02;108159;1256;72596;-66
2023/10/19 07:46:11;;;;;;;53.70;28.10;;;;;;;12.90;47.95;99845.70;108039;1254;68762;-66
2023/10/19 07:48:39;;;;;;;55.60;31.90;;;;;;;13.01;47.98;99846.50;108044;1257;71519;-66
2023/10/19 07:51:08;;;;;;;53.20;28.90;;;;;;;13.09;47.80;99850.16;108060;1254;60900;-67
2023/10/19 07:53:37;;;;;;;64.70;32.10;;;;;;;13.20;47.75;99844.32;108145;1254;60168;-65
2023/10/19 07:56:05;;;;;;;54.90;30.70;;;;;;;13.35;47.31;99843.04;108042;1254;73794;-66
2023/10/19 07:58:33;;;;;;;51.00;29.40;;;;;;;13.42;46.77;99841.59;108155;1256;70047;-66
2023/10/19 08:01:01;;;;;;;62.90;31.30;;;;;;;13.52;46.83;99844.02;108093;1254;71590;-66
2023/10/19 08:03:29;;;;;;;50.90;27.70;;;;;;;13.58;46.84;99843.17;108200;1256;60855;-66
2023/10/19 08:05:56;;;;;;;58.60;29.20;;;;;;;13.62;46.49;99842.79;108192;1254;60471;-66
2023/10/19 08:08:24;;;;;;;57.50;31.80;;;;;;;13.81;46.21;99840.90;108178;1252;74023;-67
2023/10/19 08:10:52;;;;;;;54.20;30.10;;;;;;;13.98;45.93;99832.18;108224;1254;70096;-66
2023/10/19 08:13:19;;;;;;;59.70;33.70;;;;;;;14.03;45.80;99836.80;108161;1254;72812;-66
2023/10/19 08:15:47;;;;;;;58.50;33.20;;;;;;;14.22;45.47;99836.69;108158;1256;60908;-66
2023/10/19 08:18:14;;;;;;;64.60;30.90;;;;;;;14.47;44.93;99832.76;108262;1253;60488;-66
2023/10/19 08:20:45;;;;;;;57.40;33.60;;;;;;;14.76;44.74;99829.33;108082;1257;72624;-66
2023/10/19 08:23:13;;;;;;;42.80;25.40;;;;;;;15.30;44.42;99827.13;108095;1254;70449;-66
2023/10/19 08:25:41;;;;;;;45.30;24.80;;;;;;;15.99;42.33;99823.05;108048;1254;73159;-66
2023/10/19 08:28:24;;;;;;;45.10;24.20;;;;;;;16.95;40.89;99817.41;108050;1254;61651;-67
2023/10/19 08:30:57;;;;;;;38.30;20.50;;;;;;;17.97;40.07;99813.11;108105;1259;60335;-68
2023/10/19 08:33:26;;;;;;;38.20;21.40;;;;;;;18.87;36.89;99816.02;108155;1254;74689;-67
2023/10/19 08:35:54;;;;;;;41.00;23.50;;;;;;;19.87;35.60;99807.16;108250;1254;70593;-66
2023/10/19 08:38:23;;;;;;;43.80;23.10;;;;;;;20.62;33.92;99805.11;108058;1254;71470;-67
2023/10/19 08:40:50;;;;;;;40.30;21.70;;;;;;;20.84;33.31;99803.98;108053;1254;60415;-67
2023/10/19 08:43:19;;;;;;;37.50;21.80;;;;;;;21.12;32.64;99803.88;108093;1253;60394;-66
2023/10/19 08:45:46;;;;;;;34.10;21.00;;;;;;;21.46;31.97;99803.59;108079;1254;73900;-67
2023/10/19 08:48:14;;;;;;;32.10;18.90;;;;;;;21.48;31.42;99805.92;108097;1253;70500;-66
2023/10/19 08:50:41;;;;;;;30.40;18.30;;;;;;;21.22;30.92;99805.14;108225;1254;73959;-66
2023/10/19 08:53:10;;;;;;;35.70;20.20;;;;;;;21.20;31.32;99804.48;108171;1254;60450;-67
2023/10/19 08:57:41;;;;;;;31.20;20.40;;;;;;;20.30;32.99;99808.11;104999;1289;600741;-67
2023/10/19 09:00:09;;;;;;;37.20;20.90;;;;;;;21.42;31.35;99804.32;107293;1269;60025;-66
2023/10/19 09:02:37;;;;;;;33.10;20.20;;;;;;;21.81;30.85;99803.39;107918;1254;59216;-67
2023/10/19 09:05:07;;;;;;;35.60;19.50;;;;;;;22.17;29.71;99806.22;107893;1260;74429;-67
2023/10/19 09:07:35;;;;;;;34.60;18.20;;;;;;;22.44;29.60;99807.94;107839;1254;70404;-68
2023/10/19 09:10:05;;;;;;;40.20;18.40;;;;;;;22.38;29.23;99804.16;107894;1254;72696;-65
2023/10/19 09:12:33;;;;;;;33.00;19.20;;;;;;;22.43;29.10;99801.23;107934;1254;59590;-66
2023/10/19 09:15:01;;;;;;;41.60;20.00;;;;;;;22.28;29.23;99799.05;108075;1254;60906;-68
2023/10/19 09:17:29;;;;;;;29.90;18.30;;;;;;;22.28;29.33;99796.15;108069;1253;70821;-68
2023/10/19 09:19:57;;;;;;;33.70;17.40;;;;;;;22.15;29.41;99795.89;108087;1254;70126;-67
2023/10/19 09:22:24;;;;;;;28.90;16.50;;;;;;;22.07;29.53;99794.32;108027;1254;73052;-67
2023/10/19 09:24:55;;;;;;;24.50;13.90;;;;;;;22.16;29.28;99790.42;108053;1254;59168;-66
2023/10/19 09:27:23;;;;;;;27.80;14.20;;;;;;;22.38;28.77;99784.84;108006;1254;60150;-66
2023/10/19 09:29:51;;;;;;;22.30;13.30;;;;;;;22.66;28.57;99781.95;108075;1254;71917;-67
2023/10/19 09:32:19;;;;;;;25.00;13.80;;;;;;;22.74;28.15;99784.95;108068;1253;70453;-68
2023/10/19 09:34:47;;;;;;;20.60;13.20;;;;;;;22.84;28.07;99778.81;107935;1259;70661;-67
2023/10/19 09:37:16;;;;;;;21.10;13.30;;;;;;;23.05;28.34;99776.19;107853;1260;59258;-67
2023/10/19 09:39:44;;;;;;;22.20;12.80;;;;;;;22.80;28.03;99781.88;107801;1254;59463;-67
2023/10/19 09:42:16;;;;;;;23.80;13.40;;;;;;;22.52;28.27;99779.61;107893;1256;73022;-66
2023/10/19 09:44:45;;;;;;;24.60;14.40;;;;;;;22.38;28.76;99780.38;107639;1260;70363;-67
2023/10/19 09:47:15;;;;;;;21.50;14.30;;;;;;;22.36;28.60;99777.91;107868;1257;71691;-69
2023/10/19 09:49:42;;;;;;;21.50;14.40;;;;;;;22.02;29.04;99769.51;107753;1257;59627;-66
2023/10/19 09:52:11;;;;;;;20.70;14.50;;;;;;;21.87;29.18;99767.98;107893;1255;59865;-66
2023/10/19 09:55:06;;;;;;;22.70;13.90;;;;;;;22.07;29.14;99766.02;107898;1257;71836;-67
2023/10/19 09:57:49;;;;;;;20.20;12.50;;;;;;;22.38;28.97;99761.24;107870;1256;69361;-67
2023/10/19 10:00:23;;;;;;;23.80;15.10;;;;;;;22.46;29.05;99758.05;107993;1258;74630;-67
2023/10/19 10:02:51;;;;;;;20.50;12.50;;;;;;;22.50;28.58;99752.83;107640;1256;60275;-67
2023/10/19 10:05:37;;;;;;;20.70;12.30;;;;;;;21.79;28.48;99758.89;107892;1256;62239;-66
2023/10/19 10:08:17;;;;;;;16.20;11.00;;;;;;;21.47;29.16;99752.98;107980;1258;73468;-66
2023/10/19 10:10:46;;;;;;;13.70;9.00;;;;;;;21.82;28.84;99752.87;107938;1259;69935;-67
2023/10/19 10:13:37;;;;;;;16.00;10.10;;;;;;;22.11;28.09;99751.77;107882;1257;73074;-66
2023/10/19 10:16:05;;;;;;;15.30;9.80;;;;;;;22.22;27.69;99753.63;107962;1257;61387;-67
2023/10/19 10:18:34;;;;;;;15.80;10.30;;;;;;;22.27;27.39;99754.63;107727;1256;59775;-68
2023/10/19 10:21:16;;;;;;;18.50;10.60;;;;;;;22.00;27.38;99749.29;107753;1257;74467;-67
2023/10/19 10:24:03;;;;;;;18.00;10.30;;;;;;;21.91;27.70;99747.08;107983;1257;71601;-67
2023/10/19 10:26:36;;;;;;;17.90;9.00;;;;;;;21.95;27.36;99745.67;107965;1256;73804;-67
2023/10/19 10:29:13;;;;;;;17.90;9.30;;;;;;;21.93;27.32;99743.84;107906;1256;59481;-66
2023/10/19 10:31:42;;;;;;;13.10;8.60;;;;;;;22.20;27.48;99744.46;108014;1257;60946;-67
2023/10/19 10:34:10;;;;;;;33.30;10.60;;;;;;;22.31;26.90;99745.61;108033;1256;74198;-67
2023/10/19 10:36:58;;;;;;;18.80;9.90;;;;;;;22.40;27.01;99742.05;107973;1257;70664;-67
2023/10/19 10:39:26;;;;;;;16.50;10.00;;;;;;;22.38;27.14;99736.73;107908;1257;72521;-66
2023/10/19 10:41:57;;;;;;;15.00;9.10;;;;;;;22.27;26.61;99733.09;107797;1260;59267;-67
2023/10/19 10:44:45;;;;;;;15.10;8.50;;;;;;;22.09;26.86;99729.02;107709;1262;60145;-66
2023/10/19 10:47:21;;;;;;;14.70;8.50;;;;;;;21.98;26.96;99734.34;107672;1256;74471;-66
2023/10/19 10:49:53;;;;;;;12.40;8.90;;;;;;;22.12;26.69;99727.54;107695;1256;72499;-66
2023/10/19 10:52:32;;;;;;;14.90;9.00;;;;;;;22.01;26.90;99724.73;107779;1258;74998;-67
2023/10/19 10:55:13;;;;;;;13.20;9.10;;;;;;;21.83;26.51;99724.98;107776;1256;59617;-66
2023/10/19 10:57:41;;;;;;;;;;;;;;;21.81;26.77;99723.32;107898;1256;59574;-67
2023/10/19 11:00:15;;;;;;;16.20;8.80;;;;;;;21.78;26.43;99714.84;107867;1254;73161;-67
2023/10/19 11:02:43;;;;;;;18.00;9.40;;;;;;;21.30;26.71;99720.70;107937;1254;68803;-67
2023/10/19 11:05:16;;;;;;;19.30;10.10;;;;;;;21.11;27.07;99718.96;107853;1259;71770;-67
2023/10/19 11:08:20;;;;;;;17.60;10.10;;;;;;;20.94;27.56;99719.41;107822;1254;62471;-67
2023/10/19 11:10:48;;;;;;;17.80;9.60;;;;;;;21.08;27.55;99716.89;107864;1254;59547;-67
2023/10/19 11:13:17;;;;;;;15.70;9.30;;;;;;;21.45;27.45;99710.31;107829;1254;73110;-67
2023/10/19 11:15:56;;;;;;;15.50;9.60;;;;;;;21.72;26.95;99711.98;107954;1254;70774;-67
2023/10/19 11:18:49;;;;;;;;;;;;;;;21.99;26.72;99705.12;107791;1258;71551;-67
2023/10/19 11:21:18;;;;;;;13.80;9.80;;;;;;;21.84;26.14;99706.98;107857;1254;59708;-67
2023/10/19 11:23:47;;;;;;;15.90;9.70;;;;;;;21.87;26.57;99704.53;107877;1254;59652;-67
2023/10/19 11:26:21;;;;;;;17.30;9.70;;;;;;;21.69;26.23;99704.26;107878;1254;72946;-67
2023/10/19 11:28:59;;;;;;;12.50;8.50;;;;;;;21.63;26.43;99697.66;107911;1254;70141;-67
2023/10/19 11:31:27;;;;;;;16.90;9.50;;;;;;;21.15;26.49;99696.34;108012;1256;73041;-67
2023/10/19 11:34:01;;;;;;;13.50;9.10;;;;;;;20.73;26.98;99690.16;107836;1260;59863;-67
2023/10/19 11:36:28;;;;;;;16.30;8.80;;;;;;;20.64;27.18;99692.56;107846;1254;60019;-67
2023/10/19 11:38:56;;;;;;;12.40;8.60;;;;;;;20.67;27.31;99685.84;107993;1259;73441;-67
2023/10/19 11:41:23;;;;;;;14.70;8.70;;;;;;;20.91;27.37;99687.23;107853;1255;69446;-67
2023/10/19 11:43:51;;;;;;;14.20;8.40;;;;;;;21.13;27.51;99682.02;107797;1257;71387;-66
2023/10/19 11:46:21;;;;;;;18.40;9.50;;;;;;;21.36;27.23;99681.13;107862;1258;60017;-66
2023/10/19 11:48:49;;;;;;;13.90;8.70;;;;;;;21.50;27.24;99675.20;107725;1262;59777;-67
2023/10/19 11:51:16;;;;;;;14.00;9.20;;;;;;;21.65;27.16;99673.34;107718;1256;71911;-67
2023/10/19 11:53:44;;;;;;;16.20;9.70;;;;;;;21.62;26.88;99672.05;107774;1257;69245;-67
2023/10/19 11:56:16;;;;;;;18.10;10.00;;;;;;;21.33;27.09;99672.77;107783;1256;71360;-66
2023/10/19 11:58:46;;;;;;;13.00;8.70;;;;;;;21.03;27.61;99661.55;107796;1257;57893;-65
2023/10/19 12:01:16;;;;;;;;;;;;;;;20.69;27.84;99664.27;107813;1256;61074;-67